createdAt,value
2023-01-17T06:06:35.755Z,97473.72
2023-01-17T06:09:03.724Z,97484.00
2023-01-17T06:11:31.691Z,97483.19
2023-01-17T06:13:59.404Z,97484.00
2023-01-17T06:33:51.748Z,97507.78
2023-01-17T06:37:20.179Z,97498.94
2023-01-17T06:53:31.210Z,97526.38
2023-01-17T06:55:58.959Z,97542.97
2023-01-17T06:58:27.282Z,97537.91
2023-01-17T07:00:55.053Z,97540.75
2023-01-17T07:03:25.813Z,97556.81
2023-01-17T07:05:53.663Z,97538.44
2023-01-17T07:08:21.513Z,97543.09
2023-01-17T07:10:49.486Z,97544.16
2023-01-17T07:13:17.198Z,97548.31
2023-01-17T07:15:45.138Z,97548.63
2023-01-17T07:18:12.766Z,97564.38
2023-01-17T07:20:41.560Z,97563.81
2023-01-17T07:23:09.648Z,97565.06
2023-01-17T07:25:37.484Z,97589.84
2023-01-17T07:32:31.474Z,97584.63
2023-01-17T07:34:59.320Z,97592.44
2023-01-17T07:37:27.036Z,97629.97
2023-01-17T07:39:54.998Z,97587.47
2023-01-17T07:42:24.372Z,97595.19
2023-01-17T07:44:52.134Z,97597.19
2023-01-17T07:47:20.358Z,97588.56
2023-01-17T07:49:48.406Z,97610.69
2023-01-17T07:52:18.139Z,97620.28
2023-01-17T07:54:46.119Z,97624.81
2023-01-17T07:57:13.991Z,97610.38
2023-01-17T07:59:42.023Z,97612.53
2023-01-17T08:02:20.961Z,97616.66
2023-01-17T08:04:49.388Z,97618.63
2023-01-17T08:07:17.229Z,97615.81
2023-01-17T08:09:49.840Z,97613.88
2023-01-17T08:12:18.152Z,97619.81
2023-01-17T08:14:46.276Z,97610.81
2023-01-17T08:17:17.123Z,97630.22
2023-01-17T08:19:45.162Z,97624.31
2023-01-17T08:22:12.868Z,97630.69
2023-01-17T08:24:40.616Z,97616.38
2023-01-17T08:27:09.276Z,97630.81
2023-01-17T08:29:37.010Z,97631.38
2023-01-17T08:32:04.959Z,97623.69
2023-01-17T08:34:33.760Z,97645.22
2023-01-17T08:37:01.492Z,97631.94
2023-01-17T08:39:29.203Z,97631.13
2023-01-17T08:41:57.660Z,97650.41
2023-01-17T08:44:25.409Z,97646.44
2023-01-17T08:46:53.327Z,97640.13
2023-01-17T08:49:21.160Z,97648.09
2023-01-17T08:51:48.910Z,97668.31
2023-01-17T08:54:17.435Z,97660.97
2023-01-17T08:56:47.238Z,97686.88
2023-01-17T08:59:15.177Z,97658.22
2023-01-17T09:01:46.168Z,97660.22
2023-01-17T09:04:16.996Z,97668.75
2023-01-17T09:06:48.612Z,97673.59
2023-01-17T09:09:17.813Z,97677.25
2023-01-17T09:11:45.897Z,97665.66
2023-01-17T09:14:13.730Z,97676.88
2023-01-17T09:16:41.715Z,97686.25
2023-01-17T09:19:10.007Z,97689.78
2023-01-17T09:21:37.871Z,97687.16
2023-01-17T09:24:05.931Z,97706.81
2023-01-17T09:26:34.010Z,97700.78
2023-01-17T09:29:02.098Z,97709.19
2023-01-17T09:31:30.411Z,97711.91
2023-01-17T09:33:59.343Z,97688.59
2023-01-17T09:36:34.265Z,97699.34
2023-01-17T09:39:04.009Z,97721.53
2023-01-17T09:41:50.568Z,97712.03
2023-01-17T09:44:52.013Z,97740.00
2023-01-17T09:47:35.982Z,97705.66
2023-01-17T09:50:15.798Z,97758.06
2023-01-17T09:52:44.331Z,97751.47
2023-01-17T09:55:16.754Z,97760.84
2023-01-17T09:57:50.587Z,97752.94
2023-01-17T10:00:30.783Z,97755.84
2023-01-17T10:03:01.909Z,97773.94
2023-01-17T10:05:36.912Z,97754.16
2023-01-17T10:08:47.111Z,97763.19
2023-01-17T10:11:33.192Z,97766.72
2023-01-17T10:14:36.421Z,97784.13
2023-01-17T10:17:16.516Z,97782.25
2023-01-17T10:20:13.278Z,97779.19
2023-01-17T10:23:01.517Z,97779.78
2023-01-17T10:25:45.199Z,97800.84
2023-01-17T10:28:17.945Z,97787.09
2023-01-17T10:30:53.165Z,97796.47
2023-01-17T10:33:36.669Z,97789.75
2023-01-17T10:36:26.239Z,97802.50
2023-01-17T10:38:56.703Z,97821.69
2023-01-17T10:41:41.002Z,97814.13
2023-01-17T10:44:18.308Z,97812.88
2023-01-17T10:47:12.570Z,97818.94
2023-01-17T10:49:45.546Z,97811.28
2023-01-17T10:52:37.520Z,97821.56
2023-01-17T10:55:37.629Z,97839.22
2023-01-17T10:58:15.214Z,97821.81
2023-01-17T11:01:20.576Z,97838.06
2023-01-17T11:03:55.033Z,97854.72
2023-01-17T11:07:00.555Z,97843.38
2023-01-17T11:09:40.891Z,97841.81
2023-01-17T11:12:46.636Z,97846.19
2023-01-17T11:15:39.744Z,97843.81
2023-01-17T11:18:16.277Z,97844.31
2023-01-17T11:20:48.427Z,97861.00
2023-01-17T11:23:32.961Z,97863.59
2023-01-17T11:26:06.330Z,97856.47
2023-01-17T11:28:35.851Z,97873.97
2023-01-17T11:31:26.557Z,97873.63
2023-01-17T11:34:24.443Z,97869.44
2023-01-17T11:37:17.852Z,97883.00
2023-01-17T11:39:48.560Z,97864.53
2023-01-17T11:42:44.964Z,97886.38
2023-01-17T11:45:28.070Z,97883.88
2023-01-17T11:48:08.011Z,97891.75
2023-01-17T11:50:44.749Z,97899.28
2023-01-17T11:53:17.264Z,97902.97
2023-01-17T11:56:06.372Z,97904.72
2023-01-17T11:58:39.349Z,97905.25
2023-01-17T12:01:48.093Z,97900.84
2023-01-17T12:04:28.187Z,97902.16
2023-01-17T12:07:39.462Z,97895.34
2023-01-17T12:10:30.584Z,97897.81
2023-01-17T12:13:40.909Z,97904.03
2023-01-17T12:16:33.007Z,97905.47
2023-01-17T12:19:33.826Z,97903.59
2023-01-17T12:22:26.746Z,97908.34
2023-01-17T12:25:01.079Z,97909.19
2023-01-17T12:27:56.043Z,97913.69
2023-01-17T12:31:11.249Z,97918.78
2023-01-17T12:34:07.118Z,97922.31
2023-01-17T12:36:53.768Z,97928.09
2023-01-17T12:39:27.982Z,97935.78
2023-01-17T12:42:37.216Z,97939.97
2023-01-17T12:45:09.708Z,97942.66
2023-01-17T12:47:43.070Z,97940.66
2023-01-17T12:50:22.804Z,97948.13
2023-01-17T12:53:25.936Z,97941.28
2023-01-17T12:56:16.902Z,97939.72
2023-01-17T12:59:04.579Z,97942.44
2023-01-17T13:01:40.077Z,97945.03
2023-01-17T13:04:24.940Z,97954.78
2023-01-17T13:07:01.180Z,97957.25
2023-01-17T13:09:33.344Z,97959.84
2023-01-17T13:12:04.949Z,97955.84
2023-01-17T13:14:33.106Z,97972.66
2023-01-17T13:17:35.382Z,97973.25
2023-01-17T13:20:11.866Z,97978.03
2023-01-17T13:22:40.460Z,97980.22
2023-01-17T13:25:38.634Z,97969.41
2023-01-17T13:28:13.908Z,97977.47
2023-01-17T13:31:09.258Z,97974.97
2023-01-17T13:34:00.469Z,97981.16
2023-01-17T13:36:58.118Z,97992.56
2023-01-17T13:39:33.359Z,97994.88
2023-01-17T13:42:12.765Z,98003.78
2023-01-17T13:44:40.565Z,98004.97
2023-01-17T13:47:11.651Z,98022.91
2023-01-17T13:49:39.258Z,98013.06
2023-01-17T13:52:18.843Z,98021.13
2023-01-17T13:54:53.160Z,98022.31
2023-01-17T19:30:51.679Z,98283.38
2023-01-17T21:01:48.579Z,98335.25
2023-01-17T21:36:50.544Z,98403.28
